createdAt,value
2018-04-28T00:01:32.881Z,19.33
2018-04-28T00:03:59.138Z,19.33
2018-04-28T00:06:25.289Z,19.32
2018-04-28T00:08:51.451Z,19.30
2018-04-28T00:11:18.299Z,19.32
2018-04-28T00:13:44.525Z,19.31
2018-04-28T00:16:16.084Z,19.30
2018-04-28T00:18:42.366Z,19.30
2018-04-28T00:21:09.766Z,19.29
2018-04-28T00:23:48.767Z,19.30
2018-04-28T00:26:15.166Z,19.29
2018-04-28T00:28:44.116Z,19.27
2018-04-28T00:31:17.021Z,19.28
2018-04-28T00:33:49.965Z,19.27
2018-04-28T00:36:16.563Z,19.28
2018-04-28T00:38:47.857Z,19.28
2018-04-28T00:41:14.009Z,19.26
2018-04-28T00:43:40.551Z,19.24
2018-04-28T00:46:07.694Z,19.23
2018-04-28T00:48:40.145Z,19.22
2018-04-28T00:54:16.364Z,19.22
2018-04-28T00:56:47.246Z,19.22
2018-04-28T00:59:17.605Z,19.22
2018-04-28T01:01:44.071Z,19.21
2018-04-28T01:07:05.205Z,19.20
2018-04-28T01:09:31.748Z,19.19
2018-04-28T01:11:57.962Z,19.19
2018-04-28T01:14:34.244Z,19.18
2018-04-28T01:17:00.436Z,19.18
2018-04-28T01:19:37.507Z,19.19
2018-04-28T01:22:04.538Z,19.19
2018-04-28T01:24:38.718Z,19.18
2018-04-28T01:27:14.412Z,19.19
2018-04-28T01:29:48.812Z,19.19
2018-04-28T01:32:15.031Z,19.19
2018-04-28T01:34:42.233Z,19.17
2018-04-28T01:37:23.477Z,19.19
2018-04-28T01:39:51.513Z,19.20
2018-04-28T01:42:34.640Z,19.20
2018-04-28T01:45:13.023Z,19.18
2018-04-28T01:47:40.285Z,19.19
2018-04-28T01:50:06.786Z,19.18
2018-04-28T01:52:34.045Z,19.18
2018-04-28T01:55:01.188Z,19.19
2018-04-28T02:00:40.118Z,19.16
2018-04-28T02:03:08.557Z,19.17
2018-04-28T02:08:49.516Z,19.14
2018-04-28T02:11:22.344Z,19.15
2018-04-28T02:13:53.388Z,19.14
2018-04-28T02:16:24.249Z,19.12
2018-04-28T02:19:03.397Z,19.11
2018-04-28T02:24:29.791Z,19.10
2018-04-28T02:26:56.053Z,19.10
2018-04-28T02:29:31.081Z,19.09
2018-04-28T02:32:02.129Z,19.08
2018-04-28T02:34:30.309Z,19.09
2018-04-28T02:36:57.518Z,19.08
2018-04-28T02:39:32.635Z,19.07
2018-04-28T02:45:32.009Z,19.03
2018-04-28T02:48:11.557Z,19.02
2018-04-28T02:50:59.046Z,19.01
2018-04-28T02:53:25.265Z,19.02
2018-04-28T02:55:58.252Z,19.02
2018-04-28T02:58:27.728Z,19.01
2018-04-28T03:01:13.857Z,19.00
2018-04-28T03:06:54.057Z,19.00
2018-04-28T03:09:20.942Z,18.98
2018-04-28T03:12:01.216Z,18.98
2018-04-28T03:14:27.586Z,19.00
2018-04-28T03:19:48.741Z,18.97
2018-04-28T03:22:19.189Z,19.00
2018-04-28T03:24:50.185Z,19.00
2018-04-28T03:27:25.772Z,19.00
2018-04-28T03:30:00.885Z,19.00
2018-04-28T03:32:35.910Z,19.00
2018-04-28T03:35:02.138Z,18.99
2018-04-28T03:37:31.937Z,18.97
2018-04-28T03:40:12.878Z,18.98
2018-04-28T03:45:38.069Z,18.99
2018-04-28T03:48:15.343Z,18.98
2018-04-28T03:53:42.432Z,19.00
2018-04-28T03:56:10.485Z,18.97
2018-04-28T03:58:48.904Z,18.96
2018-04-28T04:01:27.644Z,18.96
2018-04-28T04:04:15.171Z,18.96
2018-04-28T04:06:45.121Z,18.96
2018-04-28T04:09:12.241Z,18.95
2018-04-28T04:11:50.799Z,18.96
2018-04-28T04:17:22.183Z,18.97
2018-04-28T04:23:14.765Z,18.96
2018-04-28T04:25:53.189Z,18.94
2018-04-28T04:28:43.832Z,18.94
2018-04-28T04:31:13.918Z,18.96
2018-04-28T04:36:52.290Z,18.97
2018-04-28T04:42:43.385Z,18.96
2018-04-28T04:45:13.446Z,18.99
2018-04-28T04:50:49.995Z,19.03
2018-04-28T04:53:18.991Z,19.05
2018-04-28T04:58:43.199Z,19.06
2018-04-28T05:01:22.004Z,19.07
2018-04-28T05:04:01.241Z,19.09
2018-04-28T05:09:40.618Z,19.10
2018-04-28T05:12:18.885Z,19.14
2018-04-28T05:14:57.272Z,19.14
2018-04-28T05:17:55.284Z,19.14
2018-04-28T05:20:30.565Z,19.15
2018-04-28T05:23:08.148Z,19.16
2018-04-28T05:25:44.381Z,19.18
2018-04-28T05:28:23.050Z,19.17
2018-04-28T05:31:02.345Z,19.18
2018-04-28T05:36:42.418Z,19.20
2018-04-28T05:39:20.922Z,19.23
2018-04-28T05:41:53.840Z,19.22
2018-04-28T05:47:26.894Z,19.30
2018-04-28T05:50:09.101Z,19.32
2018-04-28T05:52:54.237Z,19.33
2018-04-28T05:55:26.427Z,19.31
2018-04-28T06:01:20.776Z,19.30
2018-04-28T06:03:56.911Z,19.33
2018-04-28T06:06:29.185Z,19.39
2018-04-28T06:08:57.102Z,19.41
2018-04-28T06:11:34.668Z,19.41
2018-04-28T06:14:12.494Z,19.41
2018-04-28T06:19:54.351Z,19.40
2018-04-28T06:22:20.454Z,19.40
2018-04-28T06:24:46.638Z,19.40
2018-04-28T06:27:12.796Z,19.39
2018-04-28T06:29:39.403Z,19.41
2018-04-28T06:32:05.835Z,19.41
2018-04-28T06:34:32.025Z,19.42
2018-04-28T06:36:59.230Z,19.42
2018-04-28T06:39:25.459Z,19.42
2018-04-28T06:41:51.687Z,19.43
2018-04-28T06:44:17.987Z,19.44
2018-04-28T06:46:44.189Z,19.45
2018-04-28T06:49:10.396Z,19.45
2018-04-28T06:51:37.031Z,19.47
2018-04-28T06:54:03.184Z,19.48
2018-04-28T06:56:29.379Z,19.49
2018-04-28T06:58:55.909Z,19.50
2018-04-28T07:01:22.414Z,19.50
2018-04-28T07:03:48.560Z,19.52
2018-04-28T07:06:14.757Z,19.52
2018-04-28T07:08:40.921Z,19.54
2018-04-28T07:11:07.089Z,19.55
2018-04-28T07:13:33.286Z,19.57
2018-04-28T07:15:59.518Z,19.59
2018-04-28T07:18:25.705Z,19.60
2018-04-28T07:20:52.243Z,19.61
2018-04-28T07:23:18.429Z,19.64
2018-04-28T07:25:44.905Z,19.65
2018-04-28T07:28:11.097Z,19.66
2018-04-28T07:30:37.315Z,19.68
2018-04-28T07:33:03.488Z,19.68
2018-04-28T07:35:29.685Z,19.69
2018-04-28T07:37:56.144Z,19.71
2018-04-28T07:40:22.417Z,19.72
2018-04-28T07:42:48.594Z,19.76
2018-04-28T07:45:14.803Z,19.79
2018-04-28T07:47:41.039Z,19.82
2018-04-28T07:50:07.333Z,19.84
2018-04-28T07:52:33.822Z,19.87
2018-04-28T07:54:59.977Z,19.91
2018-04-28T07:57:26.261Z,19.97
2018-04-28T07:59:52.708Z,20.04
2018-04-28T08:02:19.144Z,20.06
2018-04-28T08:04:45.344Z,20.06
2018-04-28T08:07:11.546Z,20.08
2018-04-28T08:09:37.934Z,20.09
2018-04-28T08:12:04.105Z,20.10
2018-04-28T08:14:30.281Z,20.10
2018-04-28T08:16:56.517Z,20.12
2018-04-28T08:19:22.696Z,20.13
2018-04-28T08:21:48.892Z,20.15
2018-04-28T08:24:15.402Z,20.17
2018-04-28T08:26:41.592Z,20.19
2018-04-28T08:29:07.834Z,20.21
2018-04-28T08:31:34.013Z,20.23
2018-04-28T08:34:00.187Z,20.28
2018-04-28T08:36:26.539Z,20.32
2018-04-28T08:38:52.753Z,20.37
2018-04-28T08:41:18.957Z,20.40
2018-04-28T08:43:45.143Z,20.39
2018-04-28T08:46:11.558Z,20.39
2018-04-28T08:48:37.749Z,20.39
2018-04-28T08:51:03.980Z,20.39
2018-04-28T08:53:30.142Z,20.41
2018-04-28T08:55:56.302Z,20.42
2018-04-28T08:58:22.497Z,20.44
2018-04-28T09:00:57.887Z,20.42
2018-04-28T09:03:24.522Z,20.41
2018-04-28T09:05:50.690Z,20.38
2018-04-28T09:08:16.848Z,20.33
2018-04-28T09:10:43.029Z,20.31
2018-04-28T09:13:09.206Z,20.37
2018-04-28T09:15:35.383Z,20.46
2018-04-28T09:18:01.546Z,20.55
2018-04-28T09:20:27.720Z,20.61
2018-04-28T09:22:53.876Z,20.59
2018-04-28T09:25:20.085Z,20.55
2018-04-28T09:27:46.240Z,20.50
2018-04-28T09:30:12.408Z,20.46
2018-04-28T09:32:38.617Z,20.45
2018-04-28T09:35:04.774Z,20.48
2018-04-28T09:37:30.958Z,20.56
2018-04-28T09:39:57.148Z,20.63
2018-04-28T09:42:23.324Z,20.68
2018-04-28T09:44:49.877Z,20.70
2018-04-28T09:47:16.036Z,20.71
2018-04-28T09:49:42.173Z,20.70
2018-04-28T09:52:08.453Z,20.71
2018-04-28T09:54:34.601Z,20.70
2018-04-28T09:57:01.081Z,20.70
2018-04-28T09:59:27.265Z,20.68
2018-04-28T10:01:57.312Z,20.65
2018-04-28T10:04:24.337Z,20.64
2018-04-28T10:06:50.476Z,20.68
2018-04-28T10:09:16.670Z,20.76
2018-04-28T10:11:42.889Z,20.82
2018-04-28T10:14:09.390Z,20.88
2018-04-28T10:16:35.536Z,20.91
2018-04-28T10:19:01.949Z,20.92
2018-04-28T10:21:28.140Z,20.91
2018-04-28T10:23:54.280Z,20.93
2018-04-28T10:26:20.734Z,20.96
2018-04-28T10:28:47.409Z,20.96
2018-04-28T10:31:13.574Z,20.97
2018-04-28T10:33:39.985Z,20.94
2018-04-28T10:36:06.613Z,20.97
2018-04-28T10:38:32.752Z,21.00
2018-04-28T10:40:58.902Z,21.02
2018-04-28T10:43:25.082Z,21.02
2018-04-28T10:45:51.287Z,20.99
2018-04-28T10:48:17.445Z,20.98
2018-04-28T10:50:43.633Z,20.97
2018-04-28T10:53:09.849Z,20.95
2018-04-28T10:55:36.031Z,20.96
2018-04-28T10:58:02.248Z,20.96
2018-04-28T11:00:28.648Z,20.97
2018-04-28T11:02:54.838Z,20.98
2018-04-28T11:05:20.987Z,21.03
2018-04-28T11:07:47.138Z,21.07
2018-04-28T11:10:13.325Z,21.06
2018-04-28T11:12:39.604Z,21.04
2018-04-28T11:15:06.017Z,21.02
2018-04-28T11:17:32.180Z,21.02
2018-04-28T11:19:58.399Z,20.98
2018-04-28T11:22:24.520Z,20.95
2018-04-28T11:24:50.730Z,20.96
2018-04-28T11:27:16.943Z,20.98
2018-04-28T11:29:43.106Z,21.03
2018-04-28T11:32:09.256Z,21.05
2018-04-28T11:34:35.469Z,21.06
2018-04-28T11:37:01.966Z,21.04
2018-04-28T11:39:28.811Z,21.01
2018-04-28T11:41:54.958Z,20.96
2018-04-28T11:44:21.105Z,20.89
2018-04-28T11:46:47.277Z,20.82
2018-04-28T11:49:13.405Z,20.81
2018-04-28T11:51:39.676Z,20.79
2018-04-28T11:54:05.832Z,20.78
2018-04-28T11:56:31.978Z,20.77
2018-04-28T11:58:58.663Z,20.75
2018-04-28T12:01:25.064Z,20.74
2018-04-28T12:03:51.218Z,20.71
2018-04-28T12:06:17.429Z,20.70
2018-04-28T12:08:43.858Z,20.72
2018-04-28T12:11:10.255Z,20.75
2018-04-28T12:13:36.422Z,20.78
2018-04-28T12:16:02.578Z,20.82
2018-04-28T12:18:28.750Z,20.81
2018-04-28T12:20:54.941Z,20.79
2018-04-28T12:23:21.148Z,20.74
2018-04-28T12:25:47.310Z,20.69
2018-04-28T12:28:13.462Z,20.64
2018-04-28T12:30:39.906Z,20.62
2018-04-28T12:33:06.054Z,20.61
2018-04-28T12:35:32.266Z,20.63
2018-04-28T12:37:58.420Z,20.66
2018-04-28T12:40:24.688Z,20.69
2018-04-28T12:42:50.923Z,20.70
2018-04-28T12:45:17.088Z,20.66
2018-04-28T12:47:43.264Z,20.62
2018-04-28T12:50:09.536Z,20.57
2018-04-28T12:52:35.685Z,20.51
2018-04-28T12:55:01.847Z,20.46
2018-04-28T12:57:28.044Z,20.43
2018-04-28T12:59:54.541Z,20.40
2018-04-28T13:02:20.945Z,20.38
2018-04-28T13:04:47.104Z,20.39
2018-04-28T13:07:13.304Z,20.42
2018-04-28T13:09:39.445Z,20.44
2018-04-28T13:12:05.585Z,20.47
2018-04-28T13:14:32.013Z,20.49
2018-04-28T13:16:58.223Z,20.47
2018-04-28T13:19:24.389Z,20.49
2018-04-28T13:21:50.544Z,20.50
2018-04-28T13:24:16.755Z,20.55
2018-04-28T13:26:42.908Z,20.60
2018-04-28T13:29:09.080Z,20.70
2018-04-28T13:31:35.261Z,20.81
2018-04-28T13:34:01.488Z,20.95
2018-04-28T13:36:28.093Z,21.09
2018-04-28T13:38:54.239Z,21.18
2018-04-28T13:41:20.381Z,21.24
2018-04-28T13:43:46.563Z,21.24
2018-04-28T13:46:12.850Z,21.23
2018-04-28T13:48:38.997Z,21.23
2018-04-28T13:51:05.135Z,21.22
2018-04-28T13:53:31.297Z,21.26
2018-04-28T13:55:57.451Z,21.35
2018-04-28T13:58:23.629Z,21.41
2018-04-28T14:00:49.875Z,21.40
2018-04-28T14:03:16.010Z,21.44
2018-04-28T14:05:42.169Z,21.47
2018-04-28T14:08:08.308Z,21.50
2018-04-28T14:10:34.472Z,21.45
2018-04-28T14:13:00.676Z,21.29
2018-04-28T14:15:26.820Z,21.15
2018-04-28T14:17:53.008Z,21.04
2018-04-28T14:20:19.215Z,20.99
2018-04-28T14:22:45.368Z,21.00
2018-04-28T14:25:11.528Z,21.26
2018-04-28T14:27:38.074Z,21.56
2018-04-28T14:30:04.220Z,21.90
2018-04-28T14:32:30.355Z,21.67
2018-04-28T14:34:56.643Z,21.37
2018-04-28T14:37:22.799Z,21.17
2018-04-28T14:39:48.941Z,21.02
2018-04-28T14:42:15.124Z,20.91
2018-04-28T14:44:41.317Z,20.83
2018-04-28T14:47:07.486Z,20.76
2018-04-28T14:49:33.618Z,20.69
2018-04-28T14:52:00.217Z,20.65
2018-04-28T14:54:26.362Z,20.62
2018-04-28T14:56:52.679Z,20.59
2018-04-28T14:59:18.821Z,20.55
2018-04-28T15:01:44.978Z,20.55
2018-04-28T15:04:11.197Z,20.57
2018-04-28T15:06:37.353Z,20.61
2018-04-28T15:09:03.585Z,20.96
2018-04-28T15:11:30.182Z,21.00
2018-04-28T15:13:56.350Z,20.87
2018-04-28T15:16:22.501Z,20.79
2018-04-28T15:18:48.717Z,20.79
2018-04-28T15:21:14.865Z,20.77
2018-04-28T15:23:41.256Z,20.69
2018-04-28T15:26:07.721Z,20.61
2018-04-28T15:28:33.879Z,20.54
2018-04-28T15:31:00.072Z,20.48
2018-04-28T15:33:26.230Z,20.42
2018-04-28T15:35:52.427Z,20.38
2018-04-28T15:38:18.626Z,20.34
2018-04-28T15:40:44.935Z,20.30
2018-04-28T15:43:11.083Z,20.27
2018-04-28T15:45:37.545Z,20.25
2018-04-28T15:48:03.753Z,20.23
2018-04-28T15:50:29.900Z,20.24
2018-04-28T15:52:56.067Z,20.36
2018-04-28T15:55:22.293Z,20.75
2018-04-28T15:57:48.789Z,21.35
2018-04-28T16:00:15.090Z,21.94
2018-04-28T16:02:41.293Z,22.07
2018-04-28T16:05:07.682Z,22.21
2018-04-28T16:07:33.851Z,22.56
2018-04-28T16:10:00.026Z,22.47
2018-04-28T16:12:26.169Z,22.38
2018-04-28T16:14:52.333Z,22.59
2018-04-28T16:17:18.535Z,22.26
2018-04-28T16:19:44.668Z,22.17
2018-04-28T16:22:11.173Z,22.36
2018-04-28T16:24:37.309Z,22.28
2018-04-28T16:27:03.455Z,22.03
2018-04-28T16:29:29.629Z,21.87
2018-04-28T16:31:55.774Z,22.22
2018-04-28T16:34:21.956Z,22.49
2018-04-28T16:36:48.154Z,22.14
2018-04-28T16:39:14.298Z,21.69
2018-04-28T16:41:40.501Z,21.39
2018-04-28T16:44:06.673Z,21.19
2018-04-28T16:46:32.834Z,21.03
2018-04-28T16:48:59.022Z,21.02
2018-04-28T16:51:25.172Z,20.97
2018-04-28T16:53:51.380Z,20.93
2018-04-28T16:56:17.545Z,20.88
2018-04-28T16:58:44.117Z,20.82
2018-04-28T17:01:10.289Z,20.75
2018-04-28T17:03:36.447Z,20.69
2018-04-28T17:06:03.001Z,20.63
2018-04-28T17:08:29.151Z,20.57
2018-04-28T17:10:55.285Z,20.51
2018-04-28T17:13:21.702Z,20.47
2018-04-28T17:15:47.853Z,20.42
2018-04-28T17:18:14.058Z,20.39
2018-04-28T17:20:40.210Z,20.36
2018-04-28T17:23:06.443Z,20.32
2018-04-28T17:25:32.593Z,20.31
2018-04-28T17:27:58.747Z,20.27
2018-04-28T17:30:25.057Z,20.24
2018-04-28T17:32:51.196Z,20.21
2018-04-28T17:35:17.343Z,20.17
2018-04-28T17:37:43.574Z,20.13
2018-04-28T17:40:09.726Z,20.10
2018-04-28T17:42:35.936Z,20.06
2018-04-28T17:45:02.133Z,20.03
2018-04-28T17:47:28.784Z,19.99
2018-04-28T17:49:54.942Z,19.97
2018-04-28T17:52:21.076Z,19.94
2018-04-28T17:54:47.281Z,19.92
2018-04-28T17:57:13.437Z,19.90
2018-04-28T17:59:39.594Z,19.87
2018-04-28T18:02:05.816Z,19.85
2018-04-28T18:04:31.975Z,19.83
2018-04-28T18:06:58.202Z,19.81
2018-04-28T18:09:24.348Z,19.79
2018-04-28T18:11:50.505Z,19.75
2018-04-28T18:14:16.719Z,19.72
2018-04-28T18:16:42.916Z,19.71
2018-04-28T18:19:09.073Z,19.70
2018-04-28T18:21:35.332Z,19.67
2018-04-28T18:24:02.429Z,19.66
2018-04-28T18:26:28.987Z,19.65
2018-04-28T18:28:55.098Z,19.64
2018-04-28T18:31:21.296Z,19.62
2018-04-28T18:33:47.496Z,19.61
2018-04-28T18:36:13.795Z,19.60
2018-04-28T18:38:40.186Z,19.60
2018-04-28T18:41:06.431Z,19.59
2018-04-28T18:43:32.723Z,19.57
2018-04-28T18:45:58.878Z,19.55
2018-04-28T18:48:25.026Z,19.54
2018-04-28T18:50:51.501Z,19.53
2018-04-28T18:53:17.693Z,19.53
2018-04-28T18:55:43.975Z,19.52
2018-04-28T18:58:10.389Z,19.51
2018-04-28T19:00:36.585Z,19.50
2018-04-28T19:03:02.766Z,19.49
2018-04-28T19:05:28.958Z,19.49
2018-04-28T19:07:55.403Z,19.48
2018-04-28T19:10:21.556Z,19.48
2018-04-28T19:12:47.729Z,19.46
2018-04-28T19:15:13.931Z,19.45
2018-04-28T19:17:40.310Z,19.45
2018-04-28T19:20:06.522Z,19.44
2018-04-28T19:22:32.671Z,19.44
2018-04-28T19:24:58.840Z,19.42
2018-04-28T19:27:24.991Z,19.42
2018-04-28T19:29:51.197Z,19.41
2018-04-28T19:32:17.580Z,19.40
2018-04-28T19:34:43.869Z,19.40
2018-04-28T19:37:10.021Z,19.38
2018-04-28T19:39:36.166Z,19.38
2018-04-28T19:42:02.738Z,19.38
2018-04-28T19:44:28.938Z,19.37
2018-04-28T19:46:55.089Z,19.36
2018-04-28T19:49:21.286Z,19.35
2018-04-28T19:51:47.426Z,19.35
2018-04-28T19:54:13.869Z,19.34
2018-04-28T19:56:40.072Z,19.35
2018-04-28T19:59:06.210Z,19.34
2018-04-28T20:01:32.402Z,19.34
2018-04-28T20:03:58.551Z,19.34
2018-04-28T20:06:24.714Z,19.33
2018-04-28T20:08:51.367Z,19.32
2018-04-28T20:11:17.530Z,19.32
2018-04-28T20:13:43.681Z,19.32
2018-04-28T20:16:10.101Z,19.30
2018-04-28T20:18:36.249Z,19.30
2018-04-28T20:21:02.759Z,19.29
2018-04-28T20:23:41.586Z,19.28
2018-04-28T20:26:07.880Z,19.28
2018-04-28T20:28:34.031Z,19.27
2018-04-28T20:31:00.182Z,19.26
2018-04-28T20:33:26.706Z,19.26
2018-04-28T20:35:52.888Z,19.25
2018-04-28T20:38:19.056Z,19.25
2018-04-28T20:40:45.202Z,19.27
2018-04-28T20:43:11.586Z,19.24
2018-04-28T20:45:37.810Z,19.21
2018-04-28T20:48:03.948Z,19.22
2018-04-28T20:50:30.150Z,19.23
2018-04-28T20:52:56.284Z,19.23
2018-04-28T20:55:22.431Z,19.22
2018-04-28T20:57:48.737Z,19.21
2018-04-28T21:00:14.885Z,19.20
2018-04-28T21:02:41.037Z,19.20
2018-04-28T21:05:07.212Z,19.20
2018-04-28T21:07:33.699Z,19.19
2018-04-28T21:10:00.266Z,19.19
2018-04-28T21:12:26.760Z,19.19
2018-04-28T21:14:52.897Z,19.17
2018-04-28T21:17:19.079Z,19.17
2018-04-28T21:19:45.235Z,19.16
2018-04-28T21:22:11.397Z,19.16
2018-04-28T21:24:37.562Z,19.16
2018-04-28T21:27:04.169Z,19.15
2018-04-28T21:29:30.314Z,19.16
2018-04-28T21:31:56.457Z,19.17
2018-04-28T21:34:22.680Z,19.16
2018-04-28T21:36:49.145Z,19.14
2018-04-28T21:39:15.680Z,19.14
2018-04-28T21:41:41.828Z,19.13
2018-04-28T21:44:08.106Z,19.13
2018-04-28T21:46:34.278Z,19.14
2018-04-28T21:49:00.432Z,19.13
2018-04-28T21:51:26.570Z,19.12
2018-04-28T21:53:53.154Z,19.12
2018-04-28T21:56:19.302Z,19.12
2018-04-28T21:58:45.444Z,19.12
2018-04-28T22:01:11.628Z,19.10
2018-04-28T22:03:37.806Z,19.11
2018-04-28T22:06:04.297Z,19.10
2018-04-28T22:08:30.435Z,19.08
2018-04-28T22:10:56.566Z,19.08
2018-04-28T22:13:22.733Z,19.07
2018-04-28T22:15:48.879Z,19.08
2018-04-28T22:18:15.053Z,19.07
2018-04-28T22:20:41.235Z,19.07
2018-04-28T22:23:07.389Z,19.06
2018-04-28T22:25:33.561Z,19.06
2018-04-28T22:27:59.709Z,19.06
2018-04-28T22:30:26.165Z,19.06
2018-04-28T22:32:52.306Z,19.06
2018-04-28T22:35:18.502Z,19.06
2018-04-28T22:37:44.641Z,19.06
2018-04-28T22:40:10.781Z,19.04
2018-04-28T22:42:44.169Z,19.01
2018-04-28T22:45:10.449Z,19.00
2018-04-28T22:47:36.584Z,18.99
2018-04-28T22:50:02.770Z,18.99
2018-04-28T22:52:28.944Z,18.99
2018-04-28T22:54:55.408Z,18.99
2018-04-28T22:57:21.846Z,18.98
2018-04-28T22:59:48.130Z,18.96
2018-04-28T23:02:14.269Z,18.98
2018-04-28T23:04:40.412Z,19.00
2018-04-28T23:07:06.702Z,19.00
2018-04-28T23:09:32.844Z,19.00
2018-04-28T23:11:59.318Z,19.00
2018-04-28T23:14:25.526Z,18.99
2018-04-28T23:16:51.673Z,18.98
2018-04-28T23:19:17.822Z,18.98
2018-04-28T23:21:44.000Z,18.99
2018-04-28T23:24:10.149Z,18.99
2018-04-28T23:26:36.330Z,18.99
2018-04-28T23:29:02.612Z,19.00
2018-04-28T23:31:28.750Z,18.99
2018-04-28T23:33:54.880Z,18.98
2018-04-28T23:36:21.389Z,18.97
2018-04-28T23:38:47.528Z,18.95
2018-04-28T23:41:13.717Z,18.95
2018-04-28T23:43:39.870Z,18.94
2018-04-28T23:46:06.442Z,18.94
2018-04-28T23:48:32.597Z,18.93
2018-04-28T23:50:58.751Z,18.92
2018-04-28T23:53:25.301Z,18.92
2018-04-28T23:55:51.450Z,18.91
2018-04-28T23:58:18.371Z,18.93
